createdAt,value
2019-05-11T00:01:14.537Z,47.58
2019-05-11T00:03:43.831Z,51.13
2019-05-11T00:06:13.115Z,52.17
2019-05-11T00:08:42.450Z,49.23
2019-05-11T00:11:11.730Z,52.20
2019-05-11T00:13:41.048Z,53.87
2019-05-11T00:16:10.371Z,51.65
2019-05-11T00:18:39.642Z,53.58
2019-05-11T00:21:08.959Z,55.73
2019-05-11T00:23:38.192Z,55.28
2019-05-11T00:26:07.478Z,58.38
2019-05-11T00:28:36.765Z,55.40
2019-05-11T00:31:06.055Z,54.27
2019-05-11T00:33:35.320Z,54.93
2019-05-11T00:36:04.622Z,58.78
2019-05-11T00:38:33.870Z,56.20
2019-05-11T00:41:03.142Z,56.63
2019-05-11T00:43:32.856Z,60.55
2019-05-11T00:46:02.156Z,57.43
2019-05-11T00:48:34.187Z,56.50
2019-05-11T00:51:03.548Z,57.88
2019-05-11T00:53:32.886Z,60.33
2019-05-11T00:56:02.184Z,61.37
2019-05-11T00:58:31.567Z,57.88
2019-05-11T01:01:00.947Z,61.37
2019-05-11T01:03:31.657Z,60.50
2019-05-11T01:06:00.984Z,63.08
2019-05-11T01:08:32.964Z,64.05
2019-05-11T01:11:02.555Z,62.50
2019-05-11T01:13:31.902Z,66.37
2019-05-11T01:16:01.216Z,67.85
2019-05-11T01:18:30.512Z,66.30
2019-05-11T01:20:59.839Z,67.70
2019-05-11T01:23:30.754Z,63.00
2019-05-11T01:25:59.971Z,62.88
2019-05-11T01:28:29.288Z,62.25
2019-05-11T01:30:58.564Z,62.13
2019-05-11T01:33:27.914Z,58.13
2019-05-11T01:35:57.201Z,62.62
2019-05-11T01:38:26.494Z,58.52
2019-05-11T01:40:58.891Z,56.10
2019-05-11T01:43:26.781Z,58.78
2019-05-11T01:45:56.098Z,57.90
2019-05-11T01:48:25.421Z,55.48
2019-05-11T01:50:54.660Z,61.85
2019-05-11T01:53:23.958Z,60.85
2019-05-11T01:55:53.238Z,59.63
2019-05-11T01:58:22.568Z,57.67
2019-05-11T02:00:51.846Z,56.05
2019-05-11T02:03:21.129Z,56.13
2019-05-11T02:05:51.728Z,55.43
2019-05-11T02:08:21.151Z,56.68
2019-05-11T02:10:50.583Z,60.30
2019-05-11T02:13:19.877Z,61.42
2019-05-11T02:15:49.287Z,56.23
2019-05-11T02:18:18.617Z,60.03
2019-05-11T02:20:47.971Z,61.25
2019-05-11T02:23:17.260Z,57.40
2019-05-11T02:25:46.548Z,58.42
2019-05-11T02:28:15.874Z,60.75
2019-05-11T02:30:45.146Z,60.50
2019-05-11T02:33:14.449Z,59.88
2019-05-11T02:35:43.736Z,63.90
2019-05-11T02:38:13.007Z,63.78
2019-05-11T02:40:42.329Z,63.30
2019-05-11T02:43:11.784Z,66.62
2019-05-11T02:45:42.812Z,69.27
2019-05-11T02:48:12.215Z,66.42
2019-05-11T02:50:43.005Z,65.97
2019-05-11T02:53:12.361Z,68.17
2019-05-11T02:55:43.227Z,67.47
2019-05-11T02:58:12.738Z,70.67
2019-05-11T03:00:44.927Z,71.47
2019-05-11T03:03:14.282Z,72.90
2019-05-11T03:05:43.635Z,68.70
2019-05-11T03:08:13.013Z,72.82
2019-05-11T03:10:43.318Z,72.62
2019-05-11T03:13:12.691Z,72.80
2019-05-11T03:15:42.101Z,74.30
2019-05-11T03:18:11.492Z,72.62
2019-05-11T03:20:40.824Z,74.95
2019-05-11T03:23:10.135Z,72.45
2019-05-11T03:25:39.430Z,74.25
2019-05-11T03:28:08.734Z,76.07
2019-05-11T03:30:38.285Z,76.07
2019-05-11T03:33:11.714Z,76.33
2019-05-11T03:35:41.153Z,75.15
2019-05-11T03:38:10.439Z,75.20
2019-05-11T03:40:39.722Z,81.67
2019-05-11T03:43:09.023Z,79.72
2019-05-11T03:45:41.418Z,80.57
2019-05-11T03:48:10.765Z,78.15
2019-05-11T03:50:40.027Z,79.37
2019-05-11T03:53:09.316Z,80.10
2019-05-11T03:55:38.872Z,78.42
2019-05-11T03:58:08.277Z,84.20
2019-05-11T04:00:39.168Z,80.92
2019-05-11T04:03:09.543Z,79.20
2019-05-11T04:05:38.980Z,72.85
2019-05-11T04:08:08.327Z,78.12
2019-05-11T04:10:40.649Z,76.70
2019-05-11T04:13:10.027Z,75.95
2019-05-11T04:15:41.398Z,74.03
2019-05-11T04:18:10.753Z,70.25
2019-05-11T04:20:40.141Z,70.97
2019-05-11T04:23:09.494Z,72.75
2019-05-11T04:25:39.947Z,75.42
2019-05-11T04:28:09.239Z,76.47
2019-05-11T04:30:39.786Z,80.25
2019-05-11T04:33:09.184Z,82.33
2019-05-11T04:35:40.087Z,88.70
2019-05-11T04:38:09.508Z,88.45
2019-05-11T04:40:40.182Z,86.22
2019-05-11T04:43:09.521Z,90.53
2019-05-11T04:45:38.924Z,94.55
2019-05-11T04:48:08.211Z,93.42
2019-05-11T04:50:37.580Z,91.85
2019-05-11T04:53:06.911Z,99.77
2019-05-11T04:55:36.222Z,96.47
2019-05-11T04:58:05.656Z,100.10
2019-05-11T05:00:34.976Z,95.17
2019-05-11T05:03:04.277Z,87.30
2019-05-11T05:05:33.546Z,94.07
2019-05-11T05:08:09.634Z,88.75
2019-05-11T05:10:33.924Z,92.97
2019-05-11T05:13:10.659Z,92.05
2019-05-11T05:15:34.416Z,92.62
2019-05-11T05:18:03.746Z,93.20
2019-05-11T05:20:33.113Z,95.22
2019-05-11T05:23:02.411Z,95.75
2019-05-11T05:25:31.696Z,94.03
2019-05-11T05:28:01.088Z,94.92
2019-05-11T05:30:30.381Z,96.17
2019-05-11T05:32:59.711Z,93.47
2019-05-11T05:35:29.049Z,92.20
2019-05-11T05:37:58.327Z,92.75
2019-05-11T05:40:27.671Z,94.30
2019-05-11T05:42:56.988Z,93.97
2019-05-11T05:45:26.352Z,87.42
2019-05-11T05:47:55.684Z,87.97
2019-05-11T05:50:25.019Z,88.95
2019-05-11T05:52:54.388Z,88.62
2019-05-11T05:55:23.784Z,93.47
2019-05-11T05:57:53.135Z,87.05
2019-05-11T06:00:22.474Z,84.37
2019-05-11T06:02:51.965Z,84.32
2019-05-11T06:05:21.291Z,86.40
2019-05-11T06:07:50.565Z,81.42
2019-05-11T06:10:19.986Z,79.10
2019-05-11T06:12:49.305Z,81.95
2019-05-11T06:15:20.119Z,80.35
2019-05-11T06:17:49.382Z,75.70
2019-05-11T06:20:18.831Z,78.62
2019-05-11T06:22:48.220Z,73.97
2019-05-11T06:25:17.524Z,75.62
2019-05-11T06:27:46.866Z,77.42
2019-05-11T06:30:17.842Z,73.28
2019-05-11T06:32:47.139Z,68.97
2019-05-11T06:35:16.439Z,71.05
2019-05-11T06:37:45.721Z,68.67
2019-05-11T06:40:15.059Z,70.65
2019-05-11T06:42:44.338Z,68.85
2019-05-11T06:45:14.426Z,67.95
2019-05-11T06:47:43.806Z,67.62
2019-05-11T06:50:13.255Z,69.00
2019-05-11T06:52:42.603Z,64.90
2019-05-11T06:55:12.162Z,61.60
2019-05-11T06:57:41.525Z,62.05
2019-05-11T07:00:11.323Z,63.60
2019-05-11T07:02:41.078Z,61.83
2019-05-11T07:05:10.592Z,58.73
2019-05-11T07:07:47.502Z,61.95
2019-05-11T07:10:11.231Z,56.50
2019-05-11T07:12:40.659Z,56.05
2019-05-11T07:15:11.679Z,61.37
2019-05-11T07:17:41.021Z,56.83
2019-05-11T07:20:10.424Z,52.93
2019-05-11T07:22:39.866Z,55.15
2019-05-11T07:25:09.170Z,50.98
2019-05-11T07:27:38.506Z,49.93
2019-05-11T07:30:07.900Z,47.70
2019-05-11T07:32:38.092Z,50.58
2019-05-11T07:35:08.693Z,51.77
2019-05-11T07:37:38.746Z,46.25
2019-05-11T07:40:09.029Z,46.60
2019-05-11T07:42:38.443Z,48.13
2019-05-11T07:45:08.873Z,49.67
2019-05-11T07:47:38.581Z,45.12
2019-05-11T07:50:08.452Z,46.53
2019-05-11T07:52:38.066Z,43.23
2019-05-11T07:55:08.517Z,45.43
2019-05-11T07:57:39.008Z,47.65
2019-05-11T08:00:09.003Z,45.48
2019-05-11T08:02:38.857Z,39.70
2019-05-11T08:05:09.215Z,45.70
2019-05-11T08:07:38.539Z,44.38
2019-05-11T08:10:08.389Z,43.28
2019-05-11T08:12:39.262Z,42.35
2019-05-11T08:15:13.409Z,38.53
2019-05-11T08:17:40.065Z,44.93
2019-05-11T08:20:09.570Z,42.30
2019-05-11T08:22:38.880Z,43.10
2019-05-11T08:25:09.252Z,45.80
2019-05-11T08:27:38.765Z,43.48
2019-05-11T08:30:09.304Z,40.88
2019-05-11T08:32:38.794Z,38.10
2019-05-11T08:35:09.183Z,43.40
2019-05-11T08:37:38.932Z,39.00
2019-05-11T08:40:08.633Z,44.38
2019-05-11T08:42:38.086Z,41.30
2019-05-11T08:45:18.936Z,38.60
2019-05-11T08:47:38.605Z,38.95
2019-05-11T08:50:08.336Z,37.40
2019-05-11T08:52:38.638Z,36.88
2019-05-11T08:55:08.608Z,31.37
2019-05-11T08:57:38.780Z,34.95
2019-05-11T09:00:09.966Z,31.25
2019-05-11T09:02:39.249Z,31.20
2019-05-11T09:05:08.617Z,31.23
2019-05-11T09:07:38.503Z,29.90
2019-05-11T09:10:08.380Z,30.97
2019-05-11T09:12:38.355Z,31.33
2019-05-11T09:15:09.097Z,32.95
2019-05-11T09:17:38.486Z,36.33
2019-05-11T09:20:08.837Z,35.70
2019-05-11T09:22:38.345Z,34.58
2019-05-11T09:25:08.799Z,40.48
2019-05-11T09:27:38.435Z,38.63
2019-05-11T09:30:08.510Z,37.33
2019-05-11T09:32:38.635Z,32.25
2019-05-11T09:35:45.726Z,32.80
2019-05-11T09:38:02.947Z,31.87
2019-05-11T09:40:32.238Z,33.78
2019-05-11T09:43:01.543Z,32.53
2019-05-11T09:45:44.808Z,32.63
2019-05-11T09:48:01.933Z,32.90
2019-05-11T09:50:31.241Z,27.55
2019-05-11T09:53:30.676Z,28.45
2019-05-11T09:56:33.298Z,26.95
2019-05-11T09:59:02.619Z,29.00
2019-05-11T10:01:31.924Z,29.80
2019-05-11T10:04:01.250Z,21.33
2019-05-11T10:06:31.531Z,23.95
2019-05-11T10:09:00.886Z,24.30
2019-05-11T10:11:30.163Z,21.52
2019-05-11T10:13:59.459Z,21.17
2019-05-11T10:16:28.818Z,24.47
2019-05-11T10:18:59.188Z,20.82
2019-05-11T10:21:28.639Z,21.12
2019-05-11T10:23:58.154Z,18.45
2019-05-11T10:26:28.032Z,16.48
2019-05-11T10:28:58.493Z,18.35
2019-05-11T10:31:30.859Z,19.48
2019-05-11T10:34:00.141Z,19.37
2019-05-11T10:36:29.409Z,16.95
2019-05-11T10:38:58.958Z,15.35
2019-05-11T10:41:28.609Z,19.17
2019-05-11T10:43:58.224Z,18.40
2019-05-11T10:46:28.756Z,18.50
2019-05-11T10:48:58.756Z,18.65
2019-05-11T10:51:28.924Z,19.75
2019-05-11T10:53:58.263Z,20.10
2019-05-11T10:56:28.420Z,17.90
2019-05-11T10:58:58.596Z,17.85
2019-05-11T11:01:28.644Z,17.73
2019-05-11T11:03:58.682Z,17.42
2019-05-11T11:06:28.385Z,18.20
2019-05-11T11:08:58.041Z,15.18
2019-05-11T11:11:27.932Z,16.93
2019-05-11T11:13:58.500Z,15.30
2019-05-11T11:16:36.905Z,15.05
2019-05-11T11:18:59.097Z,15.03
2019-05-11T11:21:28.511Z,14.58
2019-05-11T11:23:58.693Z,14.75
2019-05-11T11:26:28.617Z,13.68
2019-05-11T11:28:58.231Z,17.35
2019-05-11T11:31:28.734Z,15.75
2019-05-11T11:33:58.608Z,15.72
2019-05-11T11:36:28.449Z,14.38
2019-05-11T11:38:58.333Z,15.90
2019-05-11T11:41:29.877Z,12.93
2019-05-11T11:43:58.825Z,14.30
2019-05-11T11:46:28.146Z,15.03
2019-05-11T11:48:58.144Z,16.55
2019-05-11T11:51:28.676Z,13.50
2019-05-11T11:53:58.477Z,15.00
2019-05-11T11:56:28.406Z,14.00
2019-05-11T11:58:58.037Z,14.87
2019-05-11T12:01:28.084Z,12.78
2019-05-11T12:03:58.071Z,16.12
2019-05-11T12:06:28.121Z,13.20
2019-05-11T12:08:58.513Z,17.98
2019-05-11T12:11:28.038Z,13.78
2019-05-11T12:13:57.967Z,12.55
2019-05-11T12:16:28.141Z,17.07
2019-05-11T12:18:57.904Z,16.80
2019-05-11T12:21:27.673Z,16.82
2019-05-11T12:23:58.514Z,16.02
2019-05-11T12:26:28.261Z,13.38
2019-05-11T12:28:57.807Z,14.20
2019-05-11T12:31:29.648Z,12.43
2019-05-11T12:33:58.653Z,13.43
2019-05-11T12:36:28.213Z,15.10
2019-05-11T12:38:58.002Z,13.32
2019-05-11T12:41:28.069Z,12.98
2019-05-11T12:43:57.835Z,17.23
2019-05-11T12:46:27.743Z,15.20
2019-05-11T12:48:59.124Z,15.18
2019-05-11T12:51:28.103Z,13.18
2019-05-11T12:53:57.718Z,12.40
2019-05-11T12:56:27.746Z,14.05
2019-05-11T12:58:58.200Z,13.38
2019-05-11T13:01:29.024Z,14.23
2019-05-11T13:03:58.508Z,16.27
2019-05-11T13:06:28.078Z,12.47
2019-05-11T13:08:58.742Z,12.25
2019-05-11T13:11:28.603Z,12.55
2019-05-11T13:13:58.559Z,13.72
2019-05-11T13:16:28.777Z,11.97
2019-05-11T13:18:58.286Z,12.93
2019-05-11T13:21:28.650Z,13.65
2019-05-11T13:23:58.253Z,13.62
2019-05-11T13:26:28.411Z,12.93
2019-05-11T13:28:58.438Z,14.68
2019-05-11T13:31:27.956Z,12.03
2019-05-11T13:33:58.558Z,13.20
2019-05-11T13:36:28.632Z,13.30
2019-05-11T13:38:58.790Z,14.75
2019-05-11T13:41:28.247Z,13.90
2019-05-11T13:43:57.785Z,16.15
2019-05-11T13:46:28.287Z,14.28
2019-05-11T13:48:58.032Z,11.33
2019-05-11T13:51:28.534Z,11.93
2019-05-11T13:53:58.599Z,14.33
2019-05-11T13:56:28.621Z,11.38
2019-05-11T13:59:07.903Z,12.78
2019-05-11T14:01:38.135Z,12.58
2019-05-11T14:04:08.485Z,13.40
2019-05-11T14:06:38.058Z,12.00
2019-05-11T14:09:09.454Z,12.90
2019-05-11T14:11:39.224Z,14.65
2019-05-11T14:14:08.591Z,10.00
2019-05-11T14:16:38.093Z,9.45
2019-05-11T14:19:08.635Z,9.23
2019-05-11T14:21:38.586Z,8.35
2019-05-11T14:24:08.163Z,8.13
2019-05-11T14:26:39.308Z,9.30
2019-05-11T14:29:08.727Z,6.87
2019-05-11T14:31:38.858Z,7.67
2019-05-11T14:34:09.112Z,10.03
2019-05-11T14:36:38.998Z,9.68
2019-05-11T14:39:08.820Z,10.48
2019-05-11T14:41:38.439Z,11.18
2019-05-11T14:44:08.945Z,8.45
2019-05-11T14:46:38.652Z,10.18
2019-05-11T14:49:08.163Z,8.95
2019-05-11T14:51:39.062Z,8.75
2019-05-11T14:54:08.651Z,10.20
2019-05-11T14:56:38.324Z,9.45
2019-05-11T14:59:08.929Z,9.48
2019-05-11T15:01:38.497Z,10.25
2019-05-11T15:04:09.552Z,8.05
2019-05-11T15:06:38.888Z,9.73
2019-05-11T15:09:08.657Z,11.08
2019-05-11T15:11:38.979Z,10.38
2019-05-11T15:14:08.416Z,7.45
2019-05-11T15:16:38.416Z,9.58
2019-05-11T15:19:08.302Z,7.28
2019-05-11T15:21:38.730Z,7.75
2019-05-11T15:24:08.994Z,7.92
2019-05-11T15:26:38.627Z,9.13
2019-05-11T15:29:08.373Z,9.75
2019-05-11T15:31:38.231Z,8.48
2019-05-11T15:34:08.534Z,9.18
2019-05-11T15:36:38.807Z,8.53
2019-05-11T15:39:08.549Z,6.67
2019-05-11T15:41:38.900Z,8.98
2019-05-11T15:44:11.796Z,6.58
2019-05-11T15:46:39.450Z,7.03
2019-05-11T15:49:09.080Z,6.95
2019-05-11T15:51:41.154Z,7.30
2019-05-11T15:54:09.604Z,5.20
2019-05-11T15:56:38.939Z,8.18
2019-05-11T15:59:08.872Z,8.75
2019-05-11T16:01:41.033Z,6.35
2019-05-11T16:04:09.456Z,4.50
2019-05-11T16:06:38.759Z,6.37
2019-05-11T16:09:08.626Z,5.85
2019-05-11T16:11:38.744Z,6.35
2019-05-11T16:14:08.968Z,5.72
2019-05-11T16:16:39.254Z,6.22
2019-05-11T16:19:14.666Z,5.65
2019-05-11T16:21:39.787Z,5.92
2019-05-11T16:24:09.142Z,8.10
2019-05-11T16:26:38.455Z,5.33
2019-05-11T16:29:08.511Z,6.17
2019-05-11T16:31:39.094Z,4.47
2019-05-11T16:34:08.473Z,7.60
2019-05-11T16:36:39.008Z,5.80
2019-05-11T16:39:10.453Z,5.50
2019-05-11T16:41:39.932Z,7.37
2019-05-11T16:44:09.219Z,6.05
2019-05-11T16:46:39.026Z,4.53
2019-05-11T16:49:09.463Z,5.47
2019-05-11T16:51:39.609Z,6.85
2019-05-11T16:54:09.211Z,5.58
2019-05-11T16:56:38.548Z,7.08
2019-05-11T16:59:08.394Z,5.25
2019-05-11T17:01:38.164Z,4.22
2019-05-11T17:04:07.583Z,6.65
2019-05-11T17:06:38.491Z,4.92
2019-05-11T17:09:08.840Z,4.50
2019-05-11T17:11:38.628Z,6.62
2019-05-11T17:14:08.397Z,6.00
2019-05-11T17:16:38.630Z,5.12
2019-05-11T17:19:08.322Z,5.75
2019-05-11T17:21:38.264Z,4.33
2019-05-11T17:24:07.785Z,9.30
2019-05-11T17:26:38.522Z,6.40
2019-05-11T17:29:10.074Z,5.25
2019-05-11T17:31:39.307Z,4.50
2019-05-11T17:34:10.803Z,7.12
2019-05-11T17:36:40.111Z,5.30
2019-05-11T17:39:09.415Z,6.05
2019-05-11T17:41:38.978Z,5.78
2019-05-11T17:44:08.414Z,5.45
2019-05-11T17:46:38.587Z,5.85
2019-05-11T17:49:08.110Z,6.95
2019-05-11T17:51:37.886Z,6.05
2019-05-11T17:54:08.041Z,6.30
2019-05-11T17:56:38.859Z,6.08
2019-05-11T17:59:08.809Z,7.30
2019-05-11T18:01:38.154Z,4.42
2019-05-11T18:04:08.154Z,5.28
2019-05-11T18:06:38.482Z,4.58
2019-05-11T18:09:08.783Z,5.90
2019-05-11T18:11:38.307Z,5.75
2019-05-11T18:14:08.387Z,8.40
2019-05-11T18:16:38.065Z,4.37
2019-05-11T18:19:08.574Z,5.58
2019-05-11T18:21:38.781Z,4.60
2019-05-11T18:24:09.180Z,4.28
2019-05-11T18:26:39.097Z,6.20
2019-05-11T18:29:08.507Z,4.65
2019-05-11T18:31:38.531Z,5.17
2019-05-11T18:34:08.932Z,5.62
2019-05-11T18:36:38.417Z,4.62
2019-05-11T18:39:08.735Z,5.03
2019-05-11T18:41:39.107Z,6.10
2019-05-11T18:44:08.731Z,5.85
2019-05-11T18:46:38.875Z,5.35
2019-05-11T18:49:08.563Z,5.95
2019-05-11T18:51:38.074Z,4.10
2019-05-11T18:54:09.263Z,6.70
2019-05-11T18:56:38.554Z,4.72
2019-05-11T18:59:08.861Z,4.25
2019-05-11T19:01:38.447Z,5.37
2019-05-11T19:04:08.013Z,6.67
2019-05-11T19:06:37.869Z,8.18
2019-05-11T19:09:08.256Z,6.33
2019-05-11T19:11:38.389Z,5.22
2019-05-11T19:14:08.524Z,7.75
2019-05-11T19:16:39.018Z,5.17
2019-05-11T19:19:08.651Z,6.05
2019-05-11T19:21:38.039Z,5.42
2019-05-11T19:24:09.279Z,5.42
2019-05-11T19:26:38.547Z,5.87
2019-05-11T19:29:08.957Z,4.25
2019-05-11T19:31:38.738Z,4.87
2019-05-11T19:34:08.217Z,5.03
2019-05-11T19:36:38.178Z,5.35
2019-05-11T19:39:08.874Z,7.20
2019-05-11T19:41:38.537Z,7.08
2019-05-11T19:44:08.631Z,7.40
2019-05-11T19:46:38.919Z,6.58
2019-05-11T19:49:08.763Z,5.85
2019-05-11T19:51:42.297Z,5.65
2019-05-11T19:54:09.407Z,4.65
2019-05-11T19:56:38.730Z,6.50
2019-05-11T19:59:08.652Z,9.13
2019-05-11T20:01:38.050Z,6.28
2019-05-11T20:04:08.241Z,8.20
2019-05-11T20:06:38.527Z,5.70
2019-05-11T20:09:08.751Z,5.08
2019-05-11T20:11:38.552Z,4.85
2019-05-11T20:14:08.415Z,6.22
2019-05-11T20:16:37.855Z,4.85
2019-05-11T20:19:08.611Z,6.75
2019-05-11T20:21:38.467Z,6.35
2019-05-11T20:24:08.507Z,5.50
2019-05-11T20:26:38.126Z,6.17
2019-05-11T20:29:08.160Z,4.15
2019-05-11T20:31:37.962Z,8.03
2019-05-11T20:34:07.312Z,8.88
2019-05-11T20:36:36.666Z,9.88
2019-05-11T20:39:07.868Z,5.12
2019-05-11T20:41:38.501Z,7.33
2019-05-11T20:44:08.693Z,5.85
2019-05-11T20:46:38.548Z,6.95
2019-05-11T20:49:07.978Z,8.23
2019-05-11T20:51:37.410Z,5.65
2019-05-11T20:54:08.852Z,5.12
2019-05-11T20:56:38.865Z,7.95
2019-05-11T20:59:08.341Z,6.83
2019-05-11T21:01:38.784Z,6.92
2019-05-11T21:04:08.693Z,7.42
2019-05-11T21:06:38.076Z,8.08
2019-05-11T21:09:29.327Z,5.33
2019-05-11T21:11:59.085Z,6.50
2019-05-11T21:14:28.959Z,6.87
2019-05-11T21:16:58.915Z,7.05
2019-05-11T21:19:28.570Z,7.78
2019-05-11T21:21:58.997Z,6.47
2019-05-11T21:24:28.451Z,5.20
2019-05-11T21:26:58.514Z,4.87
2019-05-11T21:29:31.260Z,6.10
2019-05-11T21:31:59.250Z,7.17
2019-05-11T21:34:28.676Z,4.65
2019-05-11T21:36:58.262Z,6.60
2019-05-11T21:39:28.770Z,5.85
2019-05-11T21:41:58.414Z,6.55
2019-05-11T21:44:27.881Z,6.45
2019-05-11T21:46:57.285Z,6.17
2019-05-11T21:49:26.640Z,6.50
2019-05-11T21:52:04.063Z,7.55
2019-05-11T21:54:29.997Z,6.00
2019-05-11T21:56:58.201Z,8.53
2019-05-11T21:59:27.757Z,7.28
2019-05-11T22:01:57.111Z,5.97
2019-05-11T22:04:28.472Z,6.08
2019-05-11T22:06:58.847Z,5.78
2019-05-11T22:09:28.378Z,9.15
2019-05-11T22:11:57.697Z,8.20
2019-05-11T22:14:29.698Z,10.32
2019-05-11T22:17:01.960Z,8.85
2019-05-11T22:19:29.228Z,7.72
2019-05-11T22:21:58.538Z,11.57
2019-05-11T22:24:28.306Z,12.20
2019-05-11T22:27:00.237Z,10.43
2019-05-11T22:29:28.772Z,9.08
2019-05-11T22:31:58.207Z,8.70
2019-05-11T22:34:28.407Z,13.43
2019-05-11T22:36:58.209Z,13.70
2019-05-11T22:39:27.620Z,7.17
2019-05-11T22:41:58.887Z,17.67
2019-05-11T22:44:28.022Z,18.50
2019-05-11T22:46:58.237Z,12.55
2019-05-11T22:49:28.475Z,11.20
2019-05-11T22:51:59.765Z,17.50
2019-05-11T22:54:29.080Z,11.05
2019-05-11T22:56:58.737Z,14.03
2019-05-11T22:59:28.333Z,9.95
2019-05-11T23:01:57.620Z,7.87
2019-05-11T23:04:28.811Z,11.38
2019-05-11T23:06:58.514Z,8.95
2019-05-11T23:09:28.310Z,7.62
2019-05-11T23:12:00.749Z,12.30
2019-05-11T23:14:28.767Z,17.10
2019-05-11T23:16:58.658Z,54.08
2019-05-11T23:19:28.057Z,45.73
2019-05-11T23:21:58.666Z,11.50
2019-05-11T23:24:28.823Z,18.02
2019-05-11T23:26:58.308Z,9.30
2019-05-11T23:29:27.970Z,9.93
2019-05-11T23:31:58.385Z,9.90
2019-05-11T23:34:28.205Z,7.70
2019-05-11T23:36:59.163Z,9.78
2019-05-11T23:39:28.643Z,10.93
2019-05-11T23:41:58.620Z,9.05
2019-05-11T23:44:28.014Z,8.18
2019-05-11T23:46:57.345Z,6.65
2019-05-11T23:49:26.734Z,9.20
2019-05-11T23:51:56.151Z,6.50
2019-05-11T23:54:27.696Z,8.98
2019-05-11T23:56:58.343Z,9.50
2019-05-11T23:59:27.659Z,7.78
